Time;durP1;ratioP1;P1;durP2;ratioP2;P2;SDS_P1;SDS_P2;PMS_P1;PMS_P2;Temp;Humidity;BMP_temperature;BMP_pressure;BME280_temperature;BME280_humidity;BME280_pressure;Samples;Min_cycle;Max_cycle;Signal;HPM_P1;HPM_P2
2023/06/14 00:04:04;;;;;;;3.00;2.70;;;15.50;1.00;;;;;;5048219;28;20459;-71
2023/06/14 00:06:33;;;;;;;4.77;3.63;;;15.50;1.00;;;;;;5045216;28;20949;-72
2023/06/14 00:09:01;;;;;;;4.43;3.30;;;15.40;1.00;;;;;;5046641;28;20665;-71
2023/06/14 00:11:27;;;;;;;4.53;3.40;;;15.40;1.00;;;;;;5050641;28;20638;-70
2023/06/14 00:13:54;;;;;;;6.83;3.50;;;15.40;1.00;;;;;;5045095;28;20471;-70
2023/06/14 00:16:22;;;;;;;5.87;3.17;;;15.30;1.00;;;;;;5044229;28;21019;-70
2023/06/14 00:18:51;;;;;;;4.50;3.27;;;15.20;1.00;;;;;;5050110;28;20458;-69
2023/06/14 00:21:19;;;;;;;4.80;3.20;;;15.20;1.00;;;;;;5049517;28;20479;-70
2023/06/14 00:23:47;;;;;;;5.30;3.83;;;15.10;1.00;;;;;;5047531;28;20482;-69
2023/06/14 00:26:14;;;;;;;5.20;3.27;;;15.10;1.00;;;;;;5048551;28;20548;-69
2023/06/14 00:28:41;;;;;;;4.30;3.50;;;15.10;1.00;;;;;;5047791;28;20465;-69
2023/06/14 00:31:08;;;;;;;5.93;3.80;;;15.10;1.00;;;;;;5046852;28;20470;-70
2023/06/14 00:33:34;;;;;;;7.97;3.30;;;15.00;1.00;;;;;;5052117;28;20482;-70
2023/06/14 00:36:01;;;;;;;6.33;3.80;;;15.00;1.00;;;;;;5058227;28;20909;-70
2023/06/14 00:38:30;;;;;;;7.53;3.93;;;15.00;1.00;;;;;;5047587;28;21255;-70
2023/06/14 00:40:57;;;;;;;6.00;3.60;;;14.90;1.00;;;;;;5049420;28;20532;-70
2023/06/14 00:43:24;;;;;;;7.33;4.23;;;14.90;1.00;;;;;;5045628;28;20974;-70
2023/06/14 00:45:51;;;;;;;8.20;4.03;;;14.90;1.00;;;;;;5023990;28;20502;-70
2023/06/14 00:48:18;;;;;;;10.97;4.53;;;14.80;1.00;;;;;;5040683;28;20470;-70
2023/06/14 00:50:48;;;;;;;6.63;3.93;;;14.80;1.00;;;;;;5052687;28;20477;-70
2023/06/14 00:53:17;;;;;;;8.00;3.83;;;14.80;1.00;;;;;;5050803;28;20455;-69
2023/06/14 00:55:45;;;;;;;9.47;4.63;;;14.80;1.00;;;;;;5050110;28;20550;-70
2023/06/14 00:58:13;;;;;;;7.80;3.83;;;14.70;1.00;;;;;;5046794;28;20461;-69
2023/06/14 01:00:41;;;;;;;8.70;5.17;;;14.80;1.00;;;;;;5050019;28;20494;-70
2023/06/14 01:03:12;;;;;;;7.73;5.00;;;14.70;1.00;;;;;;5055974;22;20462;-70
2023/06/14 01:05:39;;;;;;;6.80;5.37;;;14.70;1.00;;;;;;4990699;28;20516;-70
2023/06/14 01:08:17;;;;;;;7.67;5.40;;;14.70;1.00;;;;;;4989678;28;20973;-70
2023/06/14 01:10:53;;;;;;;6.30;4.73;;;14.70;1.00;;;;;;4993055;28;20607;-73
2023/06/14 01:13:24;;;;;;;8.57;4.90;;;14.70;1.00;;;;;;4989585;28;20469;-71
2023/06/14 01:15:52;;;;;;;5.73;4.27;;;14.70;1.00;;;;;;4988876;28;21068;-71
2023/06/14 01:18:19;;;;;;;8.47;5.07;;;14.70;1.00;;;;;;4987989;28;20457;-70
2023/06/14 01:20:49;;;;;;;7.93;5.20;;;14.60;1.00;;;;;;4987147;28;20907;-70
2023/06/14 01:23:18;;;;;;;7.37;4.73;;;14.50;1.00;;;;;;4972948;28;21249;-72
2023/06/14 01:25:45;;;;;;;8.10;5.03;;;14.60;1.00;;;;;;4988294;28;20472;-72
2023/06/14 01:28:12;;;;;;;7.80;5.47;;;14.50;1.00;;;;;;4988805;28;20501;-71
2023/06/14 01:30:44;;;;;;;8.27;4.83;;;14.60;1.00;;;;;;4992115;28;20564;-71
2023/06/14 01:33:13;;;;;;;7.77;5.67;;;14.60;1.00;;;;;;4991154;28;21171;-71
2023/06/14 01:35:40;;;;;;;7.03;5.27;;;14.60;1.00;;;;;;4993175;28;20564;-71
2023/06/14 01:38:08;;;;;;;7.30;5.30;;;14.60;1.00;;;;;;4989225;28;20465;-71
2023/06/14 01:40:40;;;;;;;5.90;4.53;;;14.70;1.00;;;;;;4990012;28;20492;-71
2023/06/14 01:43:08;;;;;;;6.17;5.10;;;14.60;1.00;;;;;;4989396;28;20470;-71
2023/06/14 01:45:37;;;;;;;9.57;5.60;;;14.60;1.00;;;;;;4989038;28;20962;-70
2023/06/14 01:48:06;;;;;;;6.77;5.23;;;14.60;1.00;;;;;;4987309;28;20465;-71
2023/06/14 01:50:33;;;;;;;9.37;5.50;;;14.60;1.00;;;;;;4988438;28;20475;-70
2023/06/14 01:53:00;;;;;;;8.33;5.23;;;14.50;1.00;;;;;;4988476;28;20516;-70
2023/06/14 01:55:28;;;;;;;8.43;5.33;;;14.50;1.00;;;;;;4991465;28;20960;-70
2023/06/14 01:57:56;;;;;;;8.20;5.73;;;14.50;1.00;;;;;;4987987;28;20496;-70
2023/06/14 02:00:23;;;;;;;7.10;5.63;;;14.40;1.00;;;;;;4989406;28;20606;-70
2023/06/14 02:02:50;;;;;;;7.60;5.93;;;14.40;1.00;;;;;;4987854;28;21104;-70
2023/06/14 02:05:18;;;;;;;9.47;5.63;;;14.40;1.00;;;;;;4989540;28;20462;-70
2023/06/14 02:07:46;;;;;;;6.53;5.33;;;14.40;1.00;;;;;;4989706;28;20516;-72
2023/06/14 02:10:13;;;;;;;10.27;5.30;;;14.40;1.00;;;;;;4991266;28;20465;-70
2023/06/14 02:12:40;;;;;;;10.23;5.57;;;14.40;1.00;;;;;;4988500;28;20633;-69
2023/06/14 02:15:16;;;;;;;8.70;6.97;;;14.30;1.00;;;;;;4988765;28;20585;-70
2023/06/14 02:17:43;;;;;;;9.50;6.80;;;14.30;1.00;;;;;;4988769;28;20552;-69
2023/06/14 02:20:11;;;;;;;6.97;5.90;;;14.20;1.00;;;;;;4985853;28;20543;-69
2023/06/14 02:22:38;;;;;;;7.00;5.97;;;14.30;1.00;;;;;;4989142;28;20662;-69
2023/06/14 02:25:06;;;;;;;7.27;6.03;;;14.30;1.00;;;;;;4991030;28;20448;-69
2023/06/14 02:27:33;;;;;;;7.90;5.60;;;14.20;1.00;;;;;;4989471;28;20461;-69
2023/06/14 02:30:00;;;;;;;8.50;6.37;;;14.30;1.00;;;;;;4987780;28;21134;-70
2023/06/14 02:32:29;;;;;;;9.00;6.57;;;14.20;1.00;;;;;;4988287;28;20565;-69
2023/06/14 02:34:57;;;;;;;8.20;6.10;;;14.30;1.00;;;;;;4987849;28;20985;-69
2023/06/14 02:37:24;;;;;;;8.90;6.97;;;14.20;1.00;;;;;;4987514;28;20969;-71
2023/06/14 02:39:51;;;;;;;8.23;6.73;;;14.20;1.00;;;;;;4990408;28;20799;-70
2023/06/14 02:42:18;;;;;;;9.03;5.90;;;14.20;1.00;;;;;;4991680;28;20457;-70
2023/06/14 02:44:46;;;;;;;9.57;7.00;;;14.20;1.00;;;;;;4989910;28;20469;-71
2023/06/14 02:47:13;;;;;;;8.40;6.70;;;14.20;1.00;;;;;;4989570;28;20468;-70
2023/06/14 02:49:41;;;;;;;10.43;6.60;;;14.20;1.00;;;;;;4992699;28;20488;-70
2023/06/14 02:52:09;;;;;;;8.97;6.30;;;14.20;1.00;;;;;;4992214;28;20513;-71
2023/06/14 02:54:36;;;;;;;7.67;5.97;;;14.10;1.00;;;;;;4995011;28;20630;-71
2023/06/14 02:57:03;;;;;;;8.60;6.90;;;14.10;1.00;;;;;;4991569;28;20523;-70
2023/06/14 02:59:30;;;;;;;11.33;7.77;;;14.10;1.00;;;;;;4989091;28;20959;-70
2023/06/14 03:01:57;;;;;;;8.20;6.77;;;14.10;1.00;;;;;;4990903;28;20460;-70
2023/06/14 03:04:25;;;;;;;11.40;7.40;;;14.10;1.00;;;;;;4989121;28;20465;-70
2023/06/14 03:06:54;;;;;;;9.43;7.10;;;14.20;1.00;;;;;;4989922;28;20488;-70
2023/06/14 03:09:21;;;;;;;9.63;6.37;;;14.20;1.00;;;;;;4993196;28;20483;-70
2023/06/14 03:11:48;;;;;;;9.07;6.27;;;14.20;1.00;;;;;;4994087;28;20467;-70
2023/06/14 03:14:17;;;;;;;11.80;7.80;;;14.20;1.00;;;;;;4989192;28;20969;-70
2023/06/14 03:16:44;;;;;;;8.20;6.30;;;14.20;1.00;;;;;;4986740;28;20558;-71
2023/06/14 03:19:11;;;;;;;10.57;7.30;;;14.20;1.00;;;;;;4992552;28;20576;-71
2023/06/14 03:21:44;;;;;;;12.43;7.17;;;14.20;1.00;;;;;;4994344;28;20881;-70
2023/06/14 03:24:12;;;;;;;8.30;6.33;;;14.20;1.00;;;;;;4991176;28;20461;-71
2023/06/14 03:26:40;;;;;;;10.10;7.90;;;14.20;1.00;;;;;;4995408;28;20469;-71
2023/06/14 03:29:07;;;;;;;8.70;7.27;;;14.20;1.00;;;;;;5001660;28;20504;-71
2023/06/14 03:31:36;;;;;;;11.63;7.43;;;14.20;1.00;;;;;;4990278;28;21056;-70
2023/06/14 03:34:03;;;;;;;10.50;7.13;;;14.20;1.00;;;;;;4992684;28;20540;-69
2023/06/14 03:36:33;;;;;;;14.60;8.50;;;14.20;1.00;;;;;;4989831;28;21006;-70
2023/06/14 03:39:00;;;;;;;12.17;6.80;;;14.20;1.00;;;;;;4988187;28;20565;-71
2023/06/14 03:41:28;;;;;;;9.40;7.60;;;14.20;1.00;;;;;;4988815;28;20454;-70
2023/06/14 03:43:56;;;;;;;7.50;6.90;;;14.20;1.00;;;;;;4987690;28;20505;-70
2023/06/14 03:46:23;;;;;;;8.27;6.93;;;14.20;1.00;;;;;;4991251;28;20466;-70
2023/06/14 03:48:50;;;;;;;31.73;11.07;;;14.30;1.00;;;;;;4992770;28;20476;-71
2023/06/14 03:51:19;;;;;;;14.03;9.27;;;14.30;1.00;;;;;;4990673;28;20519;-71
2023/06/14 03:53:46;;;;;;;8.77;7.80;;;14.40;1.00;;;;;;4990433;28;20983;-72
2023/06/14 03:56:13;;;;;;;11.50;8.90;;;14.30;1.00;;;;;;4993833;28;20470;-70
2023/06/14 03:58:42;;;;;;;10.67;8.10;;;14.40;1.00;;;;;;4992749;28;20484;-70
2023/06/14 04:01:09;;;;;;;8.43;7.77;;;14.40;1.00;;;;;;4989706;28;20516;-74
2023/06/14 04:03:36;;;;;;;9.37;8.17;;;14.50;1.00;;;;;;4983431;28;20567;-70
2023/06/14 04:06:03;;;;;;;9.77;8.57;;;14.60;1.00;;;;;;4987652;28;20457;-72
2023/06/14 04:08:29;;;;;;;10.23;8.70;;;14.70;1.00;;;;;;4990386;28;20473;-70
2023/06/14 04:10:57;;;;;;;10.30;9.33;;;14.80;1.00;;;;;;4990754;28;20993;-71
2023/06/14 04:13:24;;;;;;;9.83;8.20;;;14.90;1.00;;;;;;4988778;28;20485;-70
2023/06/14 04:15:52;;;;;;;9.43;8.37;;;14.90;1.00;;;;;;4988771;28;20575;-70
2023/06/14 04:18:20;;;;;;;8.57;7.70;;;15.00;1.00;;;;;;4988727;28;20481;-72
2023/06/14 04:20:48;;;;;;;15.20;8.20;;;15.00;1.00;;;;;;4992883;28;20558;-71
2023/06/14 04:23:17;;;;;;;10.00;9.00;;;15.00;1.00;;;;;;4986912;28;20517;-71
2023/06/14 04:25:45;;;;;;;9.23;8.33;;;15.10;1.00;;;;;;4992609;28;20487;-70
2023/06/14 04:28:14;;;;;;;8.43;7.63;;;15.20;1.00;;;;;;4992364;28;20469;-72
2023/06/14 04:30:41;;;;;;;8.43;7.73;;;15.20;1.00;;;;;;4987493;28;20525;-70
2023/06/14 04:33:09;;;;;;;8.70;7.77;;;15.20;1.00;;;;;;4990095;28;20460;-70
2023/06/14 04:35:37;;;;;;;9.30;8.40;;;15.20;1.00;;;;;;4989563;28;20498;-71
2023/06/14 04:38:08;;;;;;;8.87;8.07;;;15.20;1.00;;;;;;4986055;28;20976;-69
2023/06/14 04:40:42;;;;;;;9.43;8.47;;;15.30;1.00;;;;;;4990528;28;20483;-69
2023/06/14 04:43:12;;;;;;;18.20;10.60;;;15.40;1.00;;;;;;4987115;28;20554;-70
2023/06/14 04:45:40;;;;;;;9.10;8.03;;;15.50;1.00;;;;;;4970857;28;20887;-70
2023/06/14 04:48:10;;;;;;;9.07;8.17;;;15.60;1.00;;;;;;4990342;28;21001;-71
2023/06/14 04:50:37;;;;;;;8.60;7.90;;;15.60;1.00;;;;;;4992151;28;20463;-71
2023/06/14 04:53:05;;;;;;;8.87;7.93;;;15.70;1.00;;;;;;4989624;28;20529;-71
2023/06/14 04:55:33;;;;;;;8.37;7.60;;;15.80;1.00;;;;;;4988867;28;20466;-70
2023/06/14 04:58:00;;;;;;;10.30;8.83;;;15.90;1.00;;;;;;4987213;28;20493;-71
2023/06/14 05:00:30;;;;;;;9.90;8.97;;;16.00;1.00;;;;;;4988890;28;20984;-71
2023/06/14 05:02:57;;;;;;;7.77;7.07;;;16.00;1.00;;;;;;4987076;28;20862;-71
2023/06/14 05:05:26;;;;;;;9.10;8.30;;;16.00;1.00;;;;;;4987978;28;20845;-69
2023/06/14 05:07:53;;;;;;;8.50;7.90;;;16.10;1.00;;;;;;4985485;28;20528;-70
2023/06/14 05:10:21;;;;;;;9.07;8.37;;;16.20;1.00;;;;;;4989164;28;20559;-70
2023/06/14 05:12:48;;;;;;;8.60;7.83;;;16.20;1.00;;;;;;4988732;28;20479;-70
2023/06/14 05:15:16;;;;;;;9.53;8.33;;;16.30;1.00;;;;;;4990597;28;20570;-72
2023/06/14 05:17:43;;;;;;;8.53;7.87;;;16.40;1.00;;;;;;4990386;28;20482;-70
2023/06/14 05:20:11;;;;;;;9.50;8.70;;;16.50;1.00;;;;;;4993504;28;20967;-80
2023/06/14 05:22:40;;;;;;;9.20;8.30;;;16.60;1.00;;;;;;4998223;28;20494;-78
2023/06/14 05:25:08;;;;;;;9.33;8.33;;;16.80;1.00;;;;;;4999324;28;20470;-79
2023/06/14 05:27:36;;;;;;;11.20;7.93;;;16.90;1.00;;;;;;4997624;28;20549;-77
2023/06/14 05:30:05;;;;;;;9.03;8.13;;;17.00;1.00;;;;;;4975963;28;20467;-79
2023/06/14 05:32:32;;;;;;;9.30;8.50;;;17.10;1.00;;;;;;4996488;28;20499;-77
2023/06/14 05:34:59;;;;;;;10.03;9.13;;;17.20;1.00;;;;;;4994252;28;20435;-80
2023/06/14 05:37:26;;;;;;;12.30;8.97;;;17.30;1.00;;;;;;4994083;28;20462;-76
2023/06/14 05:39:55;;;;;;;18.53;16.87;;;17.30;1.00;;;;;;4993074;28;20566;-78
2023/06/14 05:42:27;;;;;;;9.27;8.47;;;17.50;1.00;;;;;;4997781;28;20471;-78
2023/06/14 05:44:55;;;;;;;10.70;7.73;;;17.60;1.00;;;;;;4993032;28;20470;-78
2023/06/14 05:47:22;;;;;;;10.20;9.27;;;17.80;1.00;;;;;;4995396;28;20463;-76
2023/06/14 05:49:50;;;;;;;7.97;7.27;;;17.80;1.00;;;;;;4995682;28;20881;-77
2023/06/14 05:52:17;;;;;;;11.20;7.73;;;17.90;1.00;;;;;;4996608;28;20436;-77
2023/06/14 05:54:44;;;;;;;11.77;7.60;;;17.80;1.00;;;;;;4997580;28;20471;-77
2023/06/14 05:57:14;;;;;;;8.03;7.33;;;17.70;1.00;;;;;;4995508;28;20461;-77
2023/06/14 05:59:42;;;;;;;9.50;8.60;;;17.80;1.00;;;;;;4996231;28;20451;-78
2023/06/14 06:02:08;;;;;;;10.17;9.13;;;17.80;1.00;;;;;;5000443;28;21085;-78
2023/06/14 06:04:38;;;;;;;8.43;7.63;;;17.80;1.00;;;;;;4996185;28;20424;-78
2023/06/14 06:07:06;;;;;;;12.20;9.57;;;17.90;1.00;;;;;;4992603;28;20546;-76
2023/06/14 06:09:34;;;;;;;9.93;9.03;;;17.90;1.00;;;;;;4991005;28;20449;-75
2023/06/14 06:12:01;;;;;;;11.23;8.70;;;18.00;1.00;;;;;;4991618;28;20459;-77
2023/06/14 06:14:29;;;;;;;11.13;10.03;;;18.00;1.00;;;;;;4997254;28;20522;-78
2023/06/14 06:16:56;;;;;;;9.60;8.50;;;18.00;1.00;;;;;;4994647;28;20488;-76
2023/06/14 06:19:23;;;;;;;9.20;8.13;;;18.00;1.00;;;;;;4993634;28;20520;-75
2023/06/14 06:21:50;;;;;;;9.10;8.20;;;18.00;1.00;;;;;;4997411;28;20979;-77
2023/06/14 06:24:18;;;;;;;8.00;7.20;;;18.00;1.00;;;;;;4998461;28;21093;-76
2023/06/14 06:26:48;;;;;;;12.67;7.50;;;18.00;1.00;;;;;;5001951;28;20912;-75
2023/06/14 06:29:15;;;;;;;10.30;9.20;;;18.00;1.00;;;;;;4998622;28;20515;-76
2023/06/14 06:31:45;;;;;;;12.73;9.20;;;18.10;1.00;;;;;;4998346;28;21296;-76
2023/06/14 06:34:12;;;;;;;9.40;8.10;;;18.10;1.00;;;;;;4995956;28;20468;-76
2023/06/14 06:36:39;;;;;;;10.47;8.10;;;18.10;1.00;;;;;;4996356;28;20492;-76
2023/06/14 06:39:09;;;;;;;9.27;7.60;;;18.10;1.00;;;;;;4994671;28;20974;-76
2023/06/14 06:41:37;;;;;;;33.30;11.07;;;18.10;1.00;;;;;;4998950;28;20548;-76
2023/06/14 06:44:05;;;;;;;15.53;9.10;;;18.10;1.00;;;;;;4995260;28;20857;-76
2023/06/14 06:46:33;;;;;;;9.17;7.50;;;18.20;1.00;;;;;;4997050;28;21042;-79
2023/06/14 06:49:01;;;;;;;14.33;8.30;;;18.30;1.00;;;;;;4992552;28;20460;-70
2023/06/14 06:51:28;;;;;;;11.23;9.10;;;18.40;1.00;;;;;;4994763;28;20551;-70
2023/06/14 06:53:55;;;;;;;9.97;6.97;;;18.70;1.00;;;;;;4993514;28;20464;-70
2023/06/14 06:56:23;;;;;;;10.33;8.20;;;18.80;1.00;;;;;;4991659;28;20501;-70
2023/06/14 06:58:50;;;;;;;8.47;7.10;;;18.90;1.00;;;;;;4992221;28;20872;-71
2023/06/14 07:01:17;;;;;;;10.50;7.70;;;19.00;1.00;;;;;;4990151;28;20903;-72
2023/06/14 07:03:44;;;;;;;8.60;7.43;;;19.10;1.00;;;;;;4989869;28;20548;-71
2023/06/14 07:06:12;;;;;;;15.20;8.00;;;19.20;1.00;;;;;;4991177;28;20557;-71
2023/06/14 07:08:40;;;;;;;8.20;6.03;;;19.30;1.00;;;;;;4990652;28;20460;-70
2023/06/14 07:11:08;;;;;;;8.13;6.33;;;19.50;1.00;;;;;;4991727;28;20476;-70
2023/06/14 07:13:35;;;;;;;18.67;7.53;;;19.50;1.00;;;;;;4993083;28;20461;-70
2023/06/14 07:16:04;;;;;;;10.07;6.10;;;19.70;1.00;;;;;;4990074;28;20477;-70
2023/06/14 07:18:31;;;;;;;8.37;6.93;;;19.80;1.00;;;;;;4990446;28;20485;-71
2023/06/14 07:20:58;;;;;;;10.43;7.07;;;20.00;1.00;;;;;;4989429;28;20506;-70
2023/06/14 07:23:27;;;;;;;7.93;6.90;;;20.10;1.00;;;;;;4991447;28;21001;-71
2023/06/14 07:25:54;;;;;;;17.53;13.63;;;20.20;1.00;;;;;;4992423;28;20486;-70
2023/06/14 07:28:21;;;;;;;8.80;6.20;;;20.50;1.00;;;;;;4992643;28;20543;-69
2023/06/14 07:30:49;;;;;;;13.03;8.30;;;20.60;1.00;;;;;;4989716;28;20940;-70
2023/06/14 07:33:15;;;;;;;8.47;6.73;;;20.80;1.00;;;;;;4990935;28;21492;-71
2023/06/14 07:35:43;;;;;;;10.30;7.20;;;21.00;1.00;;;;;;4991833;28;20495;-69
2023/06/14 07:38:09;;;;;;;12.43;7.97;;;21.00;1.00;;;;;;4990800;28;21660;-70
2023/06/14 07:40:38;;;;;;;9.40;7.20;;;20.90;1.00;;;;;;4992561;28;20474;-70
2023/06/14 07:43:05;;;;;;;9.30;7.23;;;20.90;1.00;;;;;;4992074;28;20462;-70
2023/06/14 07:45:33;;;;;;;9.43;6.43;;;20.90;1.00;;;;;;4993411;28;21688;-71
2023/06/14 07:48:00;;;;;;;9.70;6.20;;;21.00;1.00;;;;;;4993955;28;20456;-71
2023/06/14 07:50:28;;;;;;;10.43;7.20;;;21.10;1.00;;;;;;4992397;28;20466;-70
2023/06/14 07:52:55;;;;;;;14.10;7.87;;;21.20;1.00;;;;;;4988950;28;20566;-69
2023/06/14 07:55:22;;;;;;;10.03;7.10;;;21.30;1.00;;;;;;4990691;28;20567;-72
2023/06/14 07:57:50;;;;;;;10.10;6.53;;;21.50;1.00;;;;;;4991368;28;20462;-70
2023/06/14 08:00:20;;;;;;;11.60;7.40;;;21.50;1.00;;;;;;4991508;28;20464;-72
2023/06/14 08:02:46;;;;;;;7.57;5.83;;;21.50;1.00;;;;;;4989080;28;21022;-70
2023/06/14 08:05:14;;;;;;;9.87;7.33;;;21.60;1.00;;;;;;4991580;28;20511;-69
2023/06/14 08:07:41;;;;;;;9.50;7.43;;;21.70;1.00;;;;;;4993082;28;20419;-69
2023/06/14 08:10:09;;;;;;;7.40;6.40;;;21.80;1.00;;;;;;4990703;28;20476;-73
2023/06/14 08:12:38;;;;;;;9.70;6.53;;;21.80;1.00;;;;;;4992022;28;20452;-71
2023/06/14 08:15:07;;;;;;;12.50;9.07;;;21.80;1.00;;;;;;4992799;28;20516;-69
2023/06/14 08:17:34;;;;;;;6.80;6.10;;;21.90;1.00;;;;;;4988054;28;20506;-71
2023/06/14 08:20:01;;;;;;;6.60;6.00;;;22.00;1.00;;;;;;4990854;28;20455;-71
2023/06/14 08:22:31;;;;;;;8.53;5.90;;;22.00;1.00;;;;;;4993536;28;20524;-71
2023/06/14 08:24:58;;;;;;;6.97;5.97;;;22.00;1.00;;;;;;4989863;28;20481;-70
2023/06/14 08:27:26;;;;;;;6.20;5.70;;;22.10;1.00;;;;;;4991360;28;20566;-71
2023/06/14 08:29:53;;;;;;;8.63;5.67;;;22.30;1.00;;;;;;4989664;28;20474;-70
2023/06/14 08:32:21;;;;;;;6.27;5.77;;;22.30;1.00;;;;;;4977431;28;20458;-71
2023/06/14 08:34:48;;;;;;;7.43;6.77;;;22.40;1.00;;;;;;4989623;28;20524;-70
2023/06/14 08:37:15;;;;;;;6.43;5.90;;;22.40;1.00;;;;;;4990573;28;20888;-69
2023/06/14 08:39:43;;;;;;;6.10;5.50;;;22.30;1.00;;;;;;4989578;28;20554;-69
2023/06/14 08:42:11;;;;;;;6.90;6.00;;;22.30;1.00;;;;;;4991018;28;20852;-70
2023/06/14 08:44:38;;;;;;;7.73;6.17;;;22.50;1.00;;;;;;4990498;28;21088;-70
2023/06/14 08:47:08;;;;;;;6.30;5.80;;;22.70;1.00;;;;;;4987616;28;21560;-70
2023/06/14 08:49:39;;;;;;;6.87;4.90;;;22.70;1.00;;;;;;4992943;28;20533;-70
2023/06/14 08:52:10;;;;;;;6.20;5.60;;;22.80;1.00;;;;;;4990371;28;20454;-70
2023/06/14 08:54:43;;;;;;;6.47;4.90;;;22.70;1.00;;;;;;4989826;28;20570;-71
2023/06/14 08:57:15;;;;;;;5.20;4.70;;;22.80;1.00;;;;;;4990742;28;20489;-71
2023/06/14 08:59:48;;;;;;;8.60;4.73;;;22.80;1.00;;;;;;4989007;28;20582;-70
2023/06/14 09:02:17;;;;;;;5.70;5.20;;;22.70;1.00;;;;;;4988855;28;20461;-69
2023/06/14 09:04:46;;;;;;;6.07;5.47;;;22.40;1.00;;;;;;4989092;28;20971;-73
2023/06/14 09:07:13;;;;;;;5.90;5.40;;;22.40;1.00;;;;;;4989896;28;20466;-70
2023/06/14 09:09:41;;;;;;;5.97;4.43;;;22.40;1.00;;;;;;4993604;28;20498;-70
2023/06/14 09:12:11;;;;;;;8.10;4.80;;;22.50;1.00;;;;;;4989312;28;21034;-71
2023/06/14 09:14:40;;;;;;;5.60;5.10;;;22.60;1.00;;;;;;4990466;28;21041;-70
2023/06/14 09:17:07;;;;;;;4.50;4.20;;;22.40;1.00;;;;;;4986373;28;20463;-71
2023/06/14 09:19:36;;;;;;;4.80;4.40;;;22.50;1.00;;;;;;4991876;28;20852;-71
2023/06/14 09:22:06;;;;;;;5.50;5.00;;;22.60;1.00;;;;;;4989952;28;20478;-70
2023/06/14 09:24:33;;;;;;;8.87;6.90;;;22.60;1.00;;;;;;4992720;28;20885;-73
2023/06/14 09:26:59;;;;;;;7.20;5.80;;;22.80;1.00;;;;;;4990856;28;20536;-70
2023/06/14 09:29:27;;;;;;;6.27;4.57;;;22.70;1.00;;;;;;4989398;28;20550;-70
2023/06/14 09:31:55;;;;;;;14.70;5.77;;;22.50;1.00;;;;;;4989663;28;20463;-70
2023/06/14 09:34:23;;;;;;;5.13;4.40;;;22.40;1.00;;;;;;4988605;28;20730;-70
2023/06/14 09:36:50;;;;;;;10.00;6.10;;;22.50;1.00;;;;;;4989770;28;20462;-70
2023/06/14 09:39:19;;;;;;;9.17;5.17;;;22.90;1.00;;;;;;4989470;28;20474;-70
2023/06/14 09:41:46;;;;;;;5.70;5.20;;;23.10;1.00;;;;;;4992258;28;20459;-70
2023/06/14 09:44:13;;;;;;;9.50;5.40;;;23.30;1.00;;;;;;4990451;28;20558;-72
2023/06/14 09:46:40;;;;;;;5.87;5.30;;;23.30;1.00;;;;;;4974648;28;20485;-71
2023/06/14 09:49:09;;;;;;;7.13;5.53;;;23.00;1.00;;;;;;4985750;28;20443;-71
2023/06/14 09:51:43;;;;;;;5.70;4.80;;;23.10;1.00;;;;;;4988953;28;20459;-70
2023/06/14 09:54:16;;;;;;;7.10;5.60;;;23.40;1.00;;;;;;4990714;28;20486;-70
2023/06/14 09:56:46;;;;;;;5.80;4.97;;;23.50;1.00;;;;;;4987450;28;20521;-70
2023/06/14 09:59:15;;;;;;;6.70;5.20;;;23.50;1.00;;;;;;4989117;28;20919;-70
2023/06/14 10:01:43;;;;;;;7.13;5.63;;;23.40;1.00;;;;;;4989700;28;20503;-70
2023/06/14 10:04:11;;;;;;;5.90;5.33;;;23.10;1.00;;;;;;4991730;28;20456;-75
2023/06/14 10:06:42;;;;;;;5.47;4.80;;;23.00;1.00;;;;;;4989066;28;20958;-71
2023/06/14 10:09:11;;;;;;;6.20;5.50;;;23.00;1.00;;;;;;4987640;28;20549;-70
2023/06/14 10:11:43;;;;;;;5.87;5.00;;;23.30;1.00;;;;;;4988127;28;20963;-71
2023/06/14 10:14:14;;;;;;;6.33;5.73;;;23.50;1.00;;;;;;4991505;28;20470;-68
2023/06/14 10:16:48;;;;;;;6.17;5.57;;;23.60;1.00;;;;;;4991809;28;20480;-69
2023/06/14 10:19:22;;;;;;;5.70;5.00;;;23.80;1.00;;;;;;4989291;28;20543;-70
2023/06/14 10:22:00;;;;;;;7.03;4.93;;;23.80;1.00;;;;;;4989236;28;20475;-70
2023/06/14 10:24:33;;;;;;;6.67;5.70;;;23.70;1.00;;;;;;4988765;28;20527;-70
2023/06/14 10:27:00;;;;;;;6.30;5.60;;;23.60;1.00;;;;;;4989210;28;20907;-71
2023/06/14 10:29:31;;;;;;;6.40;5.27;;;23.60;1.00;;;;;;4987778;28;20962;-70
2023/06/14 10:32:00;;;;;;;9.40;5.67;;;23.70;1.00;;;;;;4987344;28;21067;-70
2023/06/14 10:34:29;;;;;;;6.43;4.90;;;23.50;1.00;;;;;;4990819;28;20473;-69
2023/06/14 10:37:08;;;;;;;5.50;5.00;;;23.40;1.00;;;;;;4989128;28;20503;-70
2023/06/14 10:39:41;;;;;;;5.53;4.90;;;23.20;1.00;;;;;;4990061;28;20459;-70
2023/06/14 10:42:08;;;;;;;6.97;5.70;;;23.10;1.00;;;;;;4990587;28;20551;-70
2023/06/14 10:44:42;;;;;;;5.93;5.00;;;23.10;1.00;;;;;;4991442;28;20479;-69
2023/06/14 10:47:12;;;;;;;5.33;4.83;;;23.10;1.00;;;;;;4990282;28;20455;-69
2023/06/14 10:49:42;;;;;;;8.93;5.80;;;23.10;1.00;;;;;;4990929;28;20535;-70
2023/06/14 10:52:18;;;;;;;5.80;5.30;;;23.30;1.00;;;;;;4986950;28;20449;-70
2023/06/14 10:55:06;;;;;;;7.17;4.80;;;23.50;1.00;;;;;;4985807;28;20486;-70
2023/06/14 10:57:33;;;;;;;7.30;6.60;;;23.80;1.00;;;;;;4990619;28;20456;-71
2023/06/14 11:00:11;;;;;;;5.30;4.80;;;24.10;1.00;;;;;;4988817;28;20470;-69
2023/06/14 11:03:14;;;;;;;9.30;5.50;;;24.30;1.00;;;;;;4986933;28;20479;-70
2023/06/14 11:05:52;;;;;;;5.80;4.80;;;24.30;1.00;;;;;;4952409;28;20530;-70
2023/06/14 11:08:52;;;;;;;5.60;5.10;;;24.20;1.00;;;;;;4992142;28;20955;-70
2023/06/14 11:11:22;;;;;;;7.67;4.77;;;24.10;1.00;;;;;;4984360;28;20459;-71
2023/06/14 11:13:49;;;;;;;8.13;5.10;;;24.10;1.00;;;;;;4992509;28;20492;-71
2023/06/14 11:16:18;;;;;;;5.23;4.73;;;24.10;1.00;;;;;;4992164;28;20501;-73
2023/06/14 11:18:46;;;;;;;8.37;5.77;;;24.30;1.00;;;;;;4992845;28;20553;-72
2023/06/14 11:21:16;;;;;;;8.10;5.40;;;24.60;1.00;;;;;;4988960;28;20465;-70
2023/06/14 11:23:43;;;;;;;9.93;6.90;;;24.90;1.00;;;;;;4989473;28;20477;-69
2023/06/14 11:26:10;;;;;;;8.97;6.30;;;25.30;1.00;;;;;;4988782;28;20466;-70
2023/06/14 11:28:39;;;;;;;7.00;6.00;;;25.50;1.00;;;;;;4992148;28;20541;-69
2023/06/14 11:31:06;;;;;;;7.60;5.40;;;25.70;1.00;;;;;;4991334;28;20574;-69
2023/06/14 11:33:35;;;;;;;7.63;6.00;;;26.00;1.00;;;;;;4992091;28;20475;-70
2023/06/14 11:36:03;;;;;;;7.30;5.00;;;26.40;1.00;;;;;;4991670;28;20485;-70
2023/06/14 11:38:30;;;;;;;24.20;8.77;;;26.40;1.00;;;;;;4992563;28;20464;-69
2023/06/14 11:41:00;;;;;;;8.20;5.37;;;26.50;1.00;;;;;;4990020;28;20472;-69
2023/06/14 11:43:27;;;;;;;8.93;5.67;;;26.40;1.00;;;;;;4991854;28;20462;-70
2023/06/14 11:45:54;;;;;;;5.20;4.63;;;26.50;1.00;;;;;;4990598;28;20499;-70
2023/06/14 11:48:21;;;;;;;5.80;5.03;;;26.60;1.00;;;;;;4993584;28;20959;-70
2023/06/14 11:50:52;;;;;;;10.60;5.10;;;26.60;1.00;;;;;;4991546;28;20497;-71
2023/06/14 11:53:19;;;;;;;4.60;3.83;;;27.10;1.00;;;;;;4991939;28;20473;-71
2023/06/14 11:55:47;;;;;;;7.90;5.87;;;27.30;1.00;;;;;;4994150;28;20484;-70
2023/06/14 11:58:14;;;;;;;7.90;5.17;;;27.90;1.00;;;;;;4992799;28;20477;-69
2023/06/14 12:00:41;;;;;;;5.00;4.57;;;28.30;1.00;;;;;;4992422;28;20468;-70
2023/06/14 12:03:08;;;;;;;5.17;4.77;;;28.90;1.00;;;;;;4989620;28;20879;-70
2023/06/14 12:05:35;;;;;;;7.00;5.30;;;29.40;1.00;;;;;;4993474;28;20502;-69
2023/06/14 12:08:07;;;;;;;5.50;5.00;;;30.50;1.00;;;;;;4990047;28;20514;-71
2023/06/14 12:10:41;;;;;;;6.40;4.23;;;32.30;1.00;;;;;;4989930;28;20495;-69
2023/06/14 12:13:08;;;;;;;5.43;4.93;;;33.50;1.00;;;;;;4991411;28;20459;-70
2023/06/14 12:15:36;;;;;;;5.30;4.70;;;33.70;1.00;;;;;;4992973;28;20558;-70
2023/06/14 12:18:08;;;;;;;5.97;5.13;;;33.50;1.00;;;;;;4990125;28;20465;-70
2023/06/14 12:20:36;;;;;;;8.70;5.23;;;33.90;1.00;;;;;;4990741;28;20581;-72
2023/06/14 12:23:05;;;;;;;5.87;4.87;;;34.70;1.00;;;;;;4991942;28;20786;-70
2023/06/14 12:25:34;;;;;;;5.50;4.20;;;35.30;1.00;;;;;;4990313;28;20467;-69
2023/06/14 12:28:06;;;;;;;6.83;6.20;;;35.30;1.00;;;;;;4992439;28;20470;-71
2023/06/14 12:30:33;;;;;;;4.43;3.90;;;35.20;1.00;;;;;;4991572;28;20458;-71
2023/06/14 12:33:00;;;;;;;5.87;4.60;;;35.50;1.00;;;;;;4987659;28;20913;-71
2023/06/14 12:35:27;;;;;;;4.53;4.13;;;36.30;1.00;;;;;;4995948;28;20475;-70
2023/06/14 12:37:54;;;;;;;4.70;4.20;;;37.00;1.00;;;;;;4988627;28;20562;-70
2023/06/14 12:40:23;;;;;;;5.53;4.20;;;37.40;1.00;;;;;;4989600;28;20455;-70
2023/06/14 12:42:50;;;;;;;6.50;5.07;;;37.60;1.00;;;;;;4991194;28;20458;-70
2023/06/14 12:45:17;;;;;;;4.00;3.70;;;38.00;1.00;;;;;;4990678;28;20554;-70
2023/06/14 12:47:44;;;;;;;5.17;3.70;;;37.80;1.00;;;;;;4992177;28;20518;-70
2023/06/14 12:50:11;;;;;;;4.30;4.00;;;37.40;1.00;;;;;;4991137;28;20967;-70
2023/06/14 12:52:37;;;;;;;9.40;4.40;;;37.50;1.00;;;;;;4991043;28;20489;-70
2023/06/14 12:55:06;;;;;;;4.60;3.77;;;37.40;1.00;;;;;;4989248;28;20545;-70
2023/06/14 12:57:36;;;;;;;6.60;4.53;;;36.90;1.00;;;;;;4988847;28;20994;-70
2023/06/14 13:00:06;;;;;;;8.00;4.93;;;36.20;1.00;;;;;;4989838;28;20557;-70
2023/06/14 13:02:33;;;;;;;5.40;4.60;;;35.40;1.00;;;;;;4990585;28;20460;-70
2023/06/14 13:05:03;;;;;;;4.87;4.40;;;34.00;1.00;;;;;;4991123;28;20483;-70